sensor_id;sensor_type;location;lat;lon;timestamp;P1;durP1;ratioP1;P2;durP2;ratioP2
1000;SDS011;489;47.806;12.858;2024-01-06T00:00:02;5.00;;;2.80;;
1000;SDS011;489;47.806;12.858;2024-01-06T00:02:12;4.20;;;3.03;;
1000;SDS011;489;47.806;12.858;2024-01-06T00:04:15;3.13;;;2.53;;
1000;SDS011;489;47.806;12.858;2024-01-06T00:06:17;4.00;;;2.53;;
1000;SDS011;489;47.806;12.858;2024-01-06T00:08:19;3.80;;;2.50;;
1000;SDS011;489;47.806;12.858;2024-01-06T00:10:21;3.57;;;2.60;;
1000;SDS011;489;47.806;12.858;2024-01-06T00:12:23;4.90;;;2.50;;
1000;SDS011;489;47.806;12.858;2024-01-06T00:14:26;3.00;;;2.70;;
1000;SDS011;489;47.806;12.858;2024-01-06T00:16:27;3.50;;;2.80;;
1000;SDS011;489;47.806;12.858;2024-01-06T00:18:29;3.03;;;2.60;;
1000;SDS011;489;47.806;12.858;2024-01-06T00:20:31;3.00;;;2.30;;
1000;SDS011;489;47.806;12.858;2024-01-06T00:22:33;3.43;;;2.53;;
1000;SDS011;489;47.806;12.858;2024-01-06T00:24:38;3.57;;;2.70;;
1000;SDS011;489;47.806;12.858;2024-01-06T00:26:40;3.73;;;2.30;;
1000;SDS011;489;47.806;12.858;2024-01-06T00:28:42;3.10;;;2.20;;
1000;SDS011;489;47.806;12.858;2024-01-06T00:30:46;3.03;;;2.43;;
1000;SDS011;489;47.806;12.858;2024-01-06T00:32:49;4.83;;;2.40;;
1000;SDS011;489;47.806;12.858;2024-01-06T00:34:51;2.27;;;2.07;;
1000;SDS011;489;47.806;12.858;2024-01-06T00:36:53;3.60;;;2.93;;
1000;SDS011;489;47.806;12.858;2024-01-06T00:38:54;2.77;;;2.57;;
1000;SDS011;489;47.806;12.858;2024-01-06T00:40:56;3.20;;;2.47;;
1000;SDS011;489;47.806;12.858;2024-01-06T00:42:58;2.50;;;2.20;;
1000;SDS011;489;47.806;12.858;2024-01-06T00:45:00;5.00;;;2.67;;
1000;SDS011;489;47.806;12.858;2024-01-06T00:47:05;3.13;;;2.03;;
1000;SDS011;489;47.806;12.858;2024-01-06T00:49:07;3.30;;;2.60;;
1000;SDS011;489;47.806;12.858;2024-01-06T00:51:09;4.30;;;2.70;;
1000;SDS011;489;47.806;12.858;2024-01-06T00:53:09;2.93;;;2.23;;
1000;SDS011;489;47.806;12.858;2024-01-06T00:55:12;3.40;;;2.53;;
1000;SDS011;489;47.806;12.858;2024-01-06T00:57:13;2.90;;;2.60;;
1000;SDS011;489;47.806;12.858;2024-01-06T00:59:15;3.73;;;2.33;;
1000;SDS011;489;47.806;12.858;2024-01-06T01:01:16;2.77;;;2.17;;
1000;SDS011;489;47.806;12.858;2024-01-06T01:03:19;2.63;;;2.13;;
1000;SDS011;489;47.806;12.858;2024-01-06T01:05:20;3.43;;;2.63;;
1000;SDS011;489;47.806;12.858;2024-01-06T01:07:25;2.90;;;2.23;;
1000;SDS011;489;47.806;12.858;2024-01-06T01:09:29;3.00;;;2.40;;
1000;SDS011;489;47.806;12.858;2024-01-06T01:11:31;2.60;;;1.90;;
1000;SDS011;489;47.806;12.858;2024-01-06T01:13:33;5.63;;;2.30;;
1000;SDS011;489;47.806;12.858;2024-01-06T01:15:35;2.37;;;2.17;;
1000;SDS011;489;47.806;12.858;2024-01-06T01:17:37;2.50;;;2.03;;
1000;SDS011;489;47.806;12.858;2024-01-06T01:19:40;3.10;;;2.63;;
1000;SDS011;489;47.806;12.858;2024-01-06T01:21:42;2.47;;;1.90;;
1000;SDS011;489;47.806;12.858;2024-01-06T01:23:43;4.70;;;2.63;;
1000;SDS011;489;47.806;12.858;2024-01-06T01:25:45;2.87;;;2.17;;
1000;SDS011;489;47.806;12.858;2024-01-06T01:27:47;3.30;;;2.00;;
1000;SDS011;489;47.806;12.858;2024-01-06T01:29:49;3.30;;;2.47;;
1000;SDS011;489;47.806;12.858;2024-01-06T01:31:52;2.70;;;2.47;;
1000;SDS011;489;47.806;12.858;2024-01-06T01:33:54;3.93;;;2.50;;
1000;SDS011;489;47.806;12.858;2024-01-06T01:35:57;2.47;;;2.27;;
1000;SDS011;489;47.806;12.858;2024-01-06T01:37:59;2.20;;;2.00;;
1000;SDS011;489;47.806;12.858;2024-01-06T01:40:01;3.17;;;2.43;;
1000;SDS011;489;47.806;12.858;2024-01-06T01:42:03;2.47;;;2.27;;
1000;SDS011;489;47.806;12.858;2024-01-06T01:44:06;3.87;;;2.73;;
1000;SDS011;489;47.806;12.858;2024-01-06T01:46:08;3.10;;;2.80;;
1000;SDS011;489;47.806;12.858;2024-01-06T01:48:10;5.43;;;2.80;;
1000;SDS011;489;47.806;12.858;2024-01-06T01:50:12;4.20;;;2.63;;
1000;SDS011;489;47.806;12.858;2024-01-06T01:52:15;4.53;;;3.50;;
1000;SDS011;489;47.806;12.858;2024-01-06T01:54:17;5.93;;;3.83;;
1000;SDS011;489;47.806;12.858;2024-01-06T01:56:20;7.23;;;4.20;;
1000;SDS011;489;47.806;12.858;2024-01-06T01:58:23;5.03;;;3.30;;
1000;SDS011;489;47.806;12.858;2024-01-06T02:00:25;4.07;;;3.33;;
1000;SDS011;489;47.806;12.858;2024-01-06T02:02:28;3.30;;;3.00;;
1000;SDS011;489;47.806;12.858;2024-01-06T02:04:30;3.67;;;3.00;;
1000;SDS011;489;47.806;12.858;2024-01-06T02:06:32;3.20;;;2.70;;
1000;SDS011;489;47.806;12.858;2024-01-06T02:08:35;3.67;;;2.73;;
1000;SDS011;489;47.806;12.858;2024-01-06T02:10:37;4.30;;;3.07;;
1000;SDS011;489;47.806;12.858;2024-01-06T02:12:40;3.20;;;2.90;;
1000;SDS011;489;47.806;12.858;2024-01-06T02:14:43;4.10;;;3.37;;
1000;SDS011;489;47.806;12.858;2024-01-06T02:16:44;5.40;;;4.10;;
1000;SDS011;489;47.806;12.858;2024-01-06T02:18:46;11.30;;;5.90;;
1000;SDS011;489;47.806;12.858;2024-01-06T02:20:48;10.90;;;7.00;;
1000;SDS011;489;47.806;12.858;2024-01-06T02:22:51;11.87;;;8.03;;
1000;SDS011;489;47.806;12.858;2024-01-06T02:24:54;11.33;;;8.30;;
1000;SDS011;489;47.806;12.858;2024-01-06T02:26:56;10.87;;;6.87;;
1000;SDS011;489;47.806;12.858;2024-01-06T02:28:57;9.27;;;8.27;;
1000;SDS011;489;47.806;12.858;2024-01-06T02:31:00;9.80;;;6.70;;
1000;SDS011;489;47.806;12.858;2024-01-06T02:33:01;10.00;;;6.80;;
1000;SDS011;489;47.806;12.858;2024-01-06T02:35:04;8.30;;;6.50;;
1000;SDS011;489;47.806;12.858;2024-01-06T02:37:05;9.97;;;7.00;;
1000;SDS011;489;47.806;12.858;2024-01-06T02:39:08;9.33;;;6.43;;
1000;SDS011;489;47.806;12.858;2024-01-06T02:41:09;9.30;;;6.37;;
1000;SDS011;489;47.806;12.858;2024-01-06T02:43:11;8.30;;;6.50;;
1000;SDS011;489;47.806;12.858;2024-01-06T02:45:13;9.03;;;7.20;;
1000;SDS011;489;47.806;12.858;2024-01-06T02:47:15;7.77;;;6.57;;
1000;SDS011;489;47.806;12.858;2024-01-06T02:49:17;8.90;;;6.27;;
1000;SDS011;489;47.806;12.858;2024-01-06T02:51:19;8.57;;;7.10;;
1000;SDS011;489;47.806;12.858;2024-01-06T02:53:21;11.43;;;6.83;;
1000;SDS011;489;47.806;12.858;2024-01-06T02:55:23;12.70;;;7.30;;
1000;SDS011;489;47.806;12.858;2024-01-06T02:57:26;7.70;;;6.27;;
1000;SDS011;489;47.806;12.858;2024-01-06T02:59:28;9.57;;;6.13;;
1000;SDS011;489;47.806;12.858;2024-01-06T03:01:31;10.63;;;6.63;;
1000;SDS011;489;47.806;12.858;2024-01-06T03:03:34;9.57;;;6.70;;
1000;SDS011;489;47.806;12.858;2024-01-06T03:05:36;8.10;;;6.63;;
1000;SDS011;489;47.806;12.858;2024-01-06T03:07:38;7.77;;;6.30;;
1000;SDS011;489;47.806;12.858;2024-01-06T03:09:40;8.27;;;6.20;;
1000;SDS011;489;47.806;12.858;2024-01-06T03:11:43;8.33;;;6.20;;
1000;SDS011;489;47.806;12.858;2024-01-06T03:13:46;8.43;;;6.37;;
1000;SDS011;489;47.806;12.858;2024-01-06T03:15:48;7.37;;;6.33;;
1000;SDS011;489;47.806;12.858;2024-01-06T03:17:50;8.43;;;6.50;;
1000;SDS011;489;47.806;12.858;2024-01-06T03:19:51;9.50;;;6.33;;
1000;SDS011;489;47.806;12.858;2024-01-06T03:21:53;8.50;;;6.80;;
1000;SDS011;489;47.806;12.858;2024-01-06T03:23:55;9.07;;;6.80;;
1000;SDS011;489;47.806;12.858;2024-01-06T03:25:57;6.87;;;5.80;;
1000;SDS011;489;47.806;12.858;2024-01-06T03:28:00;15.10;;;6.60;;
1000;SDS011;489;47.806;12.858;2024-01-06T03:30:03;6.80;;;6.10;;
1000;SDS011;489;47.806;12.858;2024-01-06T03:32:06;7.07;;;6.10;;
1000;SDS011;489;47.806;12.858;2024-01-06T03:34:08;9.00;;;5.87;;
1000;SDS011;489;47.806;12.858;2024-01-06T03:36:29;7.90;;;5.23;;
1000;SDS011;489;47.806;12.858;2024-01-06T03:38:31;7.60;;;5.00;;
1000;SDS011;489;47.806;12.858;2024-01-06T03:40:33;6.20;;;5.13;;
1000;SDS011;489;47.806;12.858;2024-01-06T03:42:35;7.80;;;5.13;;
1000;SDS011;489;47.806;12.858;2024-01-06T03:44:39;7.03;;;5.13;;
1000;SDS011;489;47.806;12.858;2024-01-06T03:46:41;10.60;;;5.13;;
1000;SDS011;489;47.806;12.858;2024-01-06T03:48:43;4.40;;;4.00;;
1000;SDS011;489;47.806;12.858;2024-01-06T03:50:46;5.07;;;4.20;;
1000;SDS011;489;47.806;12.858;2024-01-06T03:52:48;5.27;;;4.43;;
1000;SDS011;489;47.806;12.858;2024-01-06T03:54:49;3.53;;;3.23;;
1000;SDS011;489;47.806;12.858;2024-01-06T03:56:51;3.67;;;2.50;;
1000;SDS011;489;47.806;12.858;2024-01-06T03:58:53;3.80;;;2.83;;
1000;SDS011;489;47.806;12.858;2024-01-06T04:00:56;4.70;;;3.20;;
1000;SDS011;489;47.806;12.858;2024-01-06T04:02:57;5.10;;;3.50;;
1000;SDS011;489;47.806;12.858;2024-01-06T04:04:59;4.90;;;3.70;;
1000;SDS011;489;47.806;12.858;2024-01-06T04:07:01;8.57;;;4.93;;
1000;SDS011;489;47.806;12.858;2024-01-06T04:09:03;5.40;;;3.90;;
1000;SDS011;489;47.806;12.858;2024-01-06T04:11:05;4.33;;;3.70;;
1000;SDS011;489;47.806;12.858;2024-01-06T04:13:06;5.00;;;4.10;;
1000;SDS011;489;47.806;12.858;2024-01-06T04:15:09;5.23;;;4.30;;
1000;SDS011;489;47.806;12.858;2024-01-06T04:17:12;4.50;;;3.40;;
1000;SDS011;489;47.806;12.858;2024-01-06T04:19:14;2.50;;;1.80;;
1000;SDS011;489;47.806;12.858;2024-01-06T04:21:17;2.20;;;1.80;;
1000;SDS011;489;47.806;12.858;2024-01-06T04:23:19;3.63;;;2.43;;
1000;SDS011;489;47.806;12.858;2024-01-06T04:25:21;3.00;;;2.20;;
1000;SDS011;489;47.806;12.858;2024-01-06T04:27:23;2.27;;;2.07;;
1000;SDS011;489;47.806;12.858;2024-01-06T04:29:24;3.07;;;1.90;;
1000;SDS011;489;47.806;12.858;2024-01-06T04:31:26;2.90;;;1.97;;
1000;SDS011;489;47.806;12.858;2024-01-06T04:33:30;2.10;;;1.80;;
1000;SDS011;489;47.806;12.858;2024-01-06T04:35:33;1.77;;;1.63;;
1000;SDS011;489;47.806;12.858;2024-01-06T04:37:35;1.87;;;1.77;;
1000;SDS011;489;47.806;12.858;2024-01-06T04:39:37;2.77;;;2.13;;
1000;SDS011;489;47.806;12.858;2024-01-06T04:41:39;2.27;;;1.90;;
1000;SDS011;489;47.806;12.858;2024-01-06T04:43:41;1.90;;;1.60;;
1000;SDS011;489;47.806;12.858;2024-01-06T04:45:43;2.03;;;1.30;;
1000;SDS011;489;47.806;12.858;2024-01-06T04:47:45;1.07;;;0.97;;
1000;SDS011;489;47.806;12.858;2024-01-06T04:49:49;1.00;;;0.90;;
1000;SDS011;489;47.806;12.858;2024-01-06T04:51:50;0.90;;;0.90;;
1000;SDS011;489;47.806;12.858;2024-01-06T04:53:52;1.33;;;1.17;;
1000;SDS011;489;47.806;12.858;2024-01-06T04:55:54;1.77;;;1.00;;
1000;SDS011;489;47.806;12.858;2024-01-06T04:57:56;1.23;;;1.13;;
1000;SDS011;489;47.806;12.858;2024-01-06T04:59:58;1.30;;;1.10;;
1000;SDS011;489;47.806;12.858;2024-01-06T05:02:01;1.33;;;1.20;;
1000;SDS011;489;47.806;12.858;2024-01-06T05:04:03;2.53;;;1.27;;
1000;SDS011;489;47.806;12.858;2024-01-06T05:06:07;1.60;;;1.50;;
1000;SDS011;489;47.806;12.858;2024-01-06T05:08:09;1.67;;;1.50;;
1000;SDS011;489;47.806;12.858;2024-01-06T05:10:11;1.17;;;0.97;;
1000;SDS011;489;47.806;12.858;2024-01-06T05:12:13;1.50;;;1.00;;
1000;SDS011;489;47.806;12.858;2024-01-06T05:14:15;1.60;;;1.27;;
1000;SDS011;489;47.806;12.858;2024-01-06T05:16:39;2.07;;;0.93;;
1000;SDS011;489;47.806;12.858;2024-01-06T05:18:41;0.90;;;0.90;;
1000;SDS011;489;47.806;12.858;2024-01-06T05:20:43;1.23;;;1.07;;
1000;SDS011;489;47.806;12.858;2024-01-06T05:22:45;2.70;;;1.63;;
1000;SDS011;489;47.806;12.858;2024-01-06T05:24:47;1.40;;;1.20;;
1000;SDS011;489;47.806;12.858;2024-01-06T05:26:48;1.53;;;1.20;;
1000;SDS011;489;47.806;12.858;2024-01-06T05:28:51;1.53;;;1.10;;
1000;SDS011;489;47.806;12.858;2024-01-06T05:30:54;1.53;;;1.23;;
1000;SDS011;489;47.806;12.858;2024-01-06T05:32:56;1.00;;;0.90;;
1000;SDS011;489;47.806;12.858;2024-01-06T05:34:58;2.30;;;1.20;;
1000;SDS011;489;47.806;12.858;2024-01-06T05:37:00;0.90;;;0.80;;
1000;SDS011;489;47.806;12.858;2024-01-06T05:39:03;0.97;;;0.87;;
1000;SDS011;489;47.806;12.858;2024-01-06T05:41:05;1.80;;;1.00;;
1000;SDS011;489;47.806;12.858;2024-01-06T05:43:07;1.30;;;1.00;;
1000;SDS011;489;47.806;12.858;2024-01-06T05:45:10;1.10;;;1.00;;
1000;SDS011;489;47.806;12.858;2024-01-06T05:47:13;1.03;;;0.83;;
1000;SDS011;489;47.806;12.858;2024-01-06T05:49:15;0.93;;;0.83;;
1000;SDS011;489;47.806;12.858;2024-01-06T05:51:17;1.00;;;0.90;;
1000;SDS011;489;47.806;12.858;2024-01-06T05:53:19;1.03;;;0.97;;
1000;SDS011;489;47.806;12.858;2024-01-06T05:55:23;1.10;;;0.97;;
1000;SDS011;489;47.806;12.858;2024-01-06T05:57:25;1.43;;;1.33;;
1000;SDS011;489;47.806;12.858;2024-01-06T05:59:27;1.30;;;1.10;;
1000;SDS011;489;47.806;12.858;2024-01-06T06:01:47;1.37;;;1.03;;
1000;SDS011;489;47.806;12.858;2024-01-06T06:03:50;1.43;;;0.90;;
1000;SDS011;489;47.806;12.858;2024-01-06T06:05:52;1.23;;;1.10;;
1000;SDS011;489;47.806;12.858;2024-01-06T06:07:54;1.60;;;1.43;;
1000;SDS011;489;47.806;12.858;2024-01-06T06:09:56;1.00;;;0.90;;
1000;SDS011;489;47.806;12.858;2024-01-06T06:12:22;1.10;;;0.90;;
1000;SDS011;489;47.806;12.858;2024-01-06T06:14:25;1.10;;;1.00;;
1000;SDS011;489;47.806;12.858;2024-01-06T06:16:28;1.20;;;0.83;;
1000;SDS011;489;47.806;12.858;2024-01-06T06:18:30;0.87;;;0.80;;
1000;SDS011;489;47.806;12.858;2024-01-06T06:20:33;1.77;;;1.67;;
1000;SDS011;489;47.806;12.858;2024-01-06T06:22:35;2.17;;;1.90;;
1000;SDS011;489;47.806;12.858;2024-01-06T06:24:37;5.30;;;2.77;;
1000;SDS011;489;47.806;12.858;2024-01-06T06:26:39;2.60;;;2.33;;
1000;SDS011;489;47.806;12.858;2024-01-06T06:28:42;3.87;;;2.43;;
1000;SDS011;489;47.806;12.858;2024-01-06T06:30:45;6.70;;;4.20;;
1000;SDS011;489;47.806;12.858;2024-01-06T06:32:47;5.40;;;3.87;;
1000;SDS011;489;47.806;12.858;2024-01-06T06:34:49;1.90;;;1.80;;
1000;SDS011;489;47.806;12.858;2024-01-06T06:36:51;1.10;;;1.00;;
1000;SDS011;489;47.806;12.858;2024-01-06T06:38:53;1.70;;;1.60;;
1000;SDS011;489;47.806;12.858;2024-01-06T06:40:58;2.40;;;2.03;;
1000;SDS011;489;47.806;12.858;2024-01-06T06:43:00;4.23;;;2.63;;
1000;SDS011;489;47.806;12.858;2024-01-06T06:45:04;3.17;;;2.10;;
1000;SDS011;489;47.806;12.858;2024-01-06T06:47:07;12.77;;;6.37;;
1000;SDS011;489;47.806;12.858;2024-01-06T06:49:09;6.70;;;4.20;;
1000;SDS011;489;47.806;12.858;2024-01-06T06:51:11;2.87;;;2.30;;
1000;SDS011;489;47.806;12.858;2024-01-06T06:53:13;7.73;;;5.27;;
1000;SDS011;489;47.806;12.858;2024-01-06T06:55:15;6.33;;;3.70;;
1000;SDS011;489;47.806;12.858;2024-01-06T06:57:17;7.30;;;4.57;;
1000;SDS011;489;47.806;12.858;2024-01-06T06:59:18;8.50;;;5.10;;
1000;SDS011;489;47.806;12.858;2024-01-06T07:01:21;8.87;;;6.80;;
1000;SDS011;489;47.806;12.858;2024-01-06T07:03:23;6.20;;;4.40;;
1000;SDS011;489;47.806;12.858;2024-01-06T07:05:27;8.20;;;4.60;;
1000;SDS011;489;47.806;12.858;2024-01-06T07:07:29;8.80;;;5.77;;
1000;SDS011;489;47.806;12.858;2024-01-06T07:09:31;9.23;;;5.83;;
1000;SDS011;489;47.806;12.858;2024-01-06T07:11:33;6.57;;;5.40;;
1000;SDS011;489;47.806;12.858;2024-01-06T07:13:37;7.90;;;6.20;;
1000;SDS011;489;47.806;12.858;2024-01-06T07:15:39;11.10;;;7.10;;
1000;SDS011;489;47.806;12.858;2024-01-06T07:17:43;8.83;;;6.27;;
1000;SDS011;489;47.806;12.858;2024-01-06T07:19:45;7.10;;;5.40;;
1000;SDS011;489;47.806;12.858;2024-01-06T07:21:47;7.33;;;5.37;;
1000;SDS011;489;47.806;12.858;2024-01-06T07:23:49;11.70;;;5.63;;
1000;SDS011;489;47.806;12.858;2024-01-06T07:25:51;11.53;;;6.77;;
1000;SDS011;489;47.806;12.858;2024-01-06T07:27:53;8.93;;;6.80;;
1000;SDS011;489;47.806;12.858;2024-01-06T07:29:55;9.60;;;6.33;;
1000;SDS011;489;47.806;12.858;2024-01-06T07:31:57;7.47;;;5.30;;
1000;SDS011;489;47.806;12.858;2024-01-06T07:34:00;7.13;;;5.50;;
1000;SDS011;489;47.806;12.858;2024-01-06T07:36:02;7.73;;;6.23;;
1000;SDS011;489;47.806;12.858;2024-01-06T07:38:05;8.07;;;5.90;;
1000;SDS011;489;47.806;12.858;2024-01-06T07:40:07;6.03;;;5.43;;
1000;SDS011;489;47.806;12.858;2024-01-06T07:42:09;6.30;;;5.60;;
1000;SDS011;489;47.806;12.858;2024-01-06T07:44:12;6.80;;;5.67;;
1000;SDS011;489;47.806;12.858;2024-01-06T07:46:16;6.63;;;5.87;;
1000;SDS011;489;47.806;12.858;2024-01-06T07:48:17;6.20;;;4.90;;
1000;SDS011;489;47.806;12.858;2024-01-06T07:50:21;5.73;;;5.13;;
1000;SDS011;489;47.806;12.858;2024-01-06T07:52:23;7.67;;;5.63;;
1000;SDS011;489;47.806;12.858;2024-01-06T07:54:25;7.97;;;5.10;;
1000;SDS011;489;47.806;12.858;2024-01-06T07:56:27;7.10;;;5.43;;
1000;SDS011;489;47.806;12.858;2024-01-06T07:58:29;9.33;;;6.70;;
1000;SDS011;489;47.806;12.858;2024-01-06T08:00:32;6.97;;;6.03;;
1000;SDS011;489;47.806;12.858;2024-01-06T08:02:34;5.90;;;5.40;;
1000;SDS011;489;47.806;12.858;2024-01-06T08:04:36;6.00;;;5.30;;
1000;SDS011;489;47.806;12.858;2024-01-06T08:06:39;4.77;;;4.37;;
1000;SDS011;489;47.806;12.858;2024-01-06T08:08:41;6.50;;;4.63;;
1000;SDS011;489;47.806;12.858;2024-01-06T08:10:42;6.27;;;5.63;;
1000;SDS011;489;47.806;12.858;2024-01-06T08:12:44;6.10;;;5.60;;
1000;SDS011;489;47.806;12.858;2024-01-06T08:14:46;5.50;;;5.00;;
1000;SDS011;489;47.806;12.858;2024-01-06T08:16:47;6.37;;;4.60;;
1000;SDS011;489;47.806;12.858;2024-01-06T08:18:49;6.67;;;4.80;;
1000;SDS011;489;47.806;12.858;2024-01-06T08:20:51;6.73;;;5.70;;
1000;SDS011;489;47.806;12.858;2024-01-06T08:22:54;6.50;;;5.90;;
1000;SDS011;489;47.806;12.858;2024-01-06T08:24:56;7.07;;;5.80;;
1000;SDS011;489;47.806;12.858;2024-01-06T08:26:58;9.93;;;6.03;;
1000;SDS011;489;47.806;12.858;2024-01-06T08:29:00;7.53;;;5.70;;
1000;SDS011;489;47.806;12.858;2024-01-06T08:31:01;8.47;;;6.33;;
1000;SDS011;489;47.806;12.858;2024-01-06T08:33:04;7.70;;;6.20;;
1000;SDS011;489;47.806;12.858;2024-01-06T08:35:05;8.33;;;7.10;;
1000;SDS011;489;47.806;12.858;2024-01-06T08:37:08;8.93;;;6.07;;
1000;SDS011;489;47.806;12.858;2024-01-06T08:39:11;7.63;;;5.43;;
1000;SDS011;489;47.806;12.858;2024-01-06T08:41:14;7.50;;;5.00;;
1000;SDS011;489;47.806;12.858;2024-01-06T08:43:17;7.40;;;5.37;;
1000;SDS011;489;47.806;12.858;2024-01-06T08:45:19;5.77;;;5.13;;
1000;SDS011;489;47.806;12.858;2024-01-06T08:47:21;6.40;;;4.77;;
1000;SDS011;489;47.806;12.858;2024-01-06T08:49:23;7.00;;;4.63;;
1000;SDS011;489;47.806;12.858;2024-01-06T08:51:25;7.00;;;4.97;;
1000;SDS011;489;47.806;12.858;2024-01-06T08:53:27;5.90;;;3.97;;
1000;SDS011;489;47.806;12.858;2024-01-06T08:55:30;7.70;;;4.97;;
1000;SDS011;489;47.806;12.858;2024-01-06T08:57:32;6.70;;;4.90;;
1000;SDS011;489;47.806;12.858;2024-01-06T08:59:34;8.00;;;5.80;;
1000;SDS011;489;47.806;12.858;2024-01-06T09:01:36;8.50;;;6.70;;
1000;SDS011;489;47.806;12.858;2024-01-06T09:03:39;8.20;;;5.20;;
1000;SDS011;489;47.806;12.858;2024-01-06T09:05:40;6.17;;;4.97;;
1000;SDS011;489;47.806;12.858;2024-01-06T09:07:42;7.10;;;4.97;;
1000;SDS011;489;47.806;12.858;2024-01-06T09:09:43;12.13;;;10.30;;
1000;SDS011;489;47.806;12.858;2024-01-06T09:11:47;26.70;;;20.20;;
1000;SDS011;489;47.806;12.858;2024-01-06T09:13:49;11.93;;;10.80;;
1000;SDS011;489;47.806;12.858;2024-01-06T09:15:53;11.10;;;10.17;;
1000;SDS011;489;47.806;12.858;2024-01-06T09:17:55;7.40;;;6.70;;
1000;SDS011;489;47.806;12.858;2024-01-06T09:19:56;7.10;;;4.80;;
1000;SDS011;489;47.806;12.858;2024-01-06T09:21:59;6.00;;;5.10;;
1000;SDS011;489;47.806;12.858;2024-01-06T09:24:00;5.40;;;4.30;;
1000;SDS011;489;47.806;12.858;2024-01-06T09:26:06;4.77;;;4.30;;
1000;SDS011;489;47.806;12.858;2024-01-06T09:28:09;5.47;;;4.93;;
1000;SDS011;489;47.806;12.858;2024-01-06T09:30:12;5.27;;;4.40;;
1000;SDS011;489;47.806;12.858;2024-01-06T09:32:13;7.83;;;5.73;;
1000;SDS011;489;47.806;12.858;2024-01-06T09:34:15;10.33;;;8.27;;
1000;SDS011;489;47.806;12.858;2024-01-06T09:36:17;10.07;;;6.67;;
1000;SDS011;489;47.806;12.858;2024-01-06T09:38:19;6.20;;;4.80;;
1000;SDS011;489;47.806;12.858;2024-01-06T09:40:22;8.20;;;5.13;;
1000;SDS011;489;47.806;12.858;2024-01-06T09:42:24;6.40;;;5.30;;
1000;SDS011;489;47.806;12.858;2024-01-06T09:44:29;5.07;;;4.40;;
1000;SDS011;489;47.806;12.858;2024-01-06T09:46:31;5.43;;;3.93;;
1000;SDS011;489;47.806;12.858;2024-01-06T09:48:35;4.80;;;4.03;;
1000;SDS011;489;47.806;12.858;2024-01-06T09:50:42;4.53;;;4.07;;
1000;SDS011;489;47.806;12.858;2024-01-06T09:52:46;6.03;;;3.17;;
1000;SDS011;489;47.806;12.858;2024-01-06T09:54:54;3.30;;;3.00;;
1000;SDS011;489;47.806;12.858;2024-01-06T09:56:56;2.90;;;2.53;;
1000;SDS011;489;47.806;12.858;2024-01-06T09:58:58;4.00;;;2.40;;
1000;SDS011;489;47.806;12.858;2024-01-06T10:01:01;3.27;;;2.93;;
1000;SDS011;489;47.806;12.858;2024-01-06T10:03:03;3.77;;;3.00;;
1000;SDS011;489;47.806;12.858;2024-01-06T10:05:08;4.43;;;2.80;;
1000;SDS011;489;47.806;12.858;2024-01-06T10:07:11;2.60;;;2.40;;
1000;SDS011;489;47.806;12.858;2024-01-06T10:09:14;3.53;;;2.47;;
1000;SDS011;489;47.806;12.858;2024-01-06T10:11:16;2.83;;;2.60;;
1000;SDS011;489;47.806;12.858;2024-01-06T10:13:17;3.10;;;2.77;;
1000;SDS011;489;47.806;12.858;2024-01-06T10:15:18;4.20;;;2.70;;
1000;SDS011;489;47.806;12.858;2024-01-06T10:17:23;2.90;;;2.20;;
1000;SDS011;489;47.806;12.858;2024-01-06T10:19:25;5.63;;;2.93;;
1000;SDS011;489;47.806;12.858;2024-01-06T10:21:27;4.77;;;3.20;;
1000;SDS011;489;47.806;12.858;2024-01-06T10:23:29;3.57;;;3.03;;
1000;SDS011;489;47.806;12.858;2024-01-06T10:25:32;3.10;;;2.80;;
1000;SDS011;489;47.806;12.858;2024-01-06T10:27:34;3.13;;;2.83;;
1000;SDS011;489;47.806;12.858;2024-01-06T10:29:36;3.33;;;3.00;;
1000;SDS011;489;47.806;12.858;2024-01-06T10:31:38;4.73;;;3.43;;
1000;SDS011;489;47.806;12.858;2024-01-06T10:34:02;3.90;;;3.50;;
1000;SDS011;489;47.806;12.858;2024-01-06T10:36:06;4.43;;;3.40;;
1000;SDS011;489;47.806;12.858;2024-01-06T10:38:09;3.37;;;2.90;;
1000;SDS011;489;47.806;12.858;2024-01-06T10:40:13;8.23;;;3.87;;
1000;SDS011;489;47.806;12.858;2024-01-06T10:42:17;3.43;;;3.13;;
1000;SDS011;489;47.806;12.858;2024-01-06T10:44:19;2.80;;;2.60;;
1000;SDS011;489;47.806;12.858;2024-01-06T10:46:23;4.17;;;3.03;;
1000;SDS011;489;47.806;12.858;2024-01-06T10:48:25;3.70;;;3.20;;
1000;SDS011;489;47.806;12.858;2024-01-06T10:50:29;4.50;;;4.10;;
1000;SDS011;489;47.806;12.858;2024-01-06T10:52:31;3.10;;;2.80;;
1000;SDS011;489;47.806;12.858;2024-01-06T10:54:33;3.47;;;3.17;;
1000;SDS011;489;47.806;12.858;2024-01-06T10:56:37;4.20;;;3.13;;
1000;SDS011;489;47.806;12.858;2024-01-06T10:58:39;4.63;;;4.20;;
1000;SDS011;489;47.806;12.858;2024-01-06T11:00:47;5.80;;;5.30;;
1000;SDS011;489;47.806;12.858;2024-01-06T11:02:49;6.50;;;5.90;;
1000;SDS011;489;47.806;12.858;2024-01-06T11:04:53;6.80;;;5.30;;
1000;SDS011;489;47.806;12.858;2024-01-06T11:06:56;8.00;;;4.00;;
1000;SDS011;489;47.806;12.858;2024-01-06T11:08:59;5.80;;;4.10;;
1000;SDS011;489;47.806;12.858;2024-01-06T11:11:03;6.70;;;4.07;;
1000;SDS011;489;47.806;12.858;2024-01-06T11:13:07;4.80;;;3.77;;
1000;SDS011;489;47.806;12.858;2024-01-06T11:15:11;3.50;;;3.20;;
1000;SDS011;489;47.806;12.858;2024-01-06T11:17:51;4.17;;;3.77;;
1000;SDS011;489;47.806;12.858;2024-01-06T11:20:04;4.10;;;3.50;;
1000;SDS011;489;47.806;12.858;2024-01-06T11:22:19;3.57;;;3.27;;
1000;SDS011;489;47.806;12.858;2024-01-06T11:24:20;3.70;;;3.40;;
1000;SDS011;489;47.806;12.858;2024-01-06T11:26:25;3.93;;;3.10;;
1000;SDS011;489;47.806;12.858;2024-01-06T11:28:27;2.90;;;2.70;;
1000;SDS011;489;47.806;12.858;2024-01-06T11:30:29;4.73;;;3.50;;
1000;SDS011;489;47.806;12.858;2024-01-06T11:32:31;4.30;;;3.80;;
1000;SDS011;489;47.806;12.858;2024-01-06T11:34:36;3.80;;;3.33;;
1000;SDS011;489;47.806;12.858;2024-01-06T11:36:39;13.97;;;12.67;;
1000;SDS011;489;47.806;12.858;2024-01-06T11:38:42;12.80;;;11.60;;
1000;SDS011;489;47.806;12.858;2024-01-06T11:40:48;7.10;;;6.40;;
1000;SDS011;489;47.806;12.858;2024-01-06T11:42:56;3.00;;;2.80;;
1000;SDS011;489;47.806;12.858;2024-01-06T11:45:01;2.60;;;2.40;;
1000;SDS011;489;47.806;12.858;2024-01-06T11:47:03;2.40;;;2.20;;
1000;SDS011;489;47.806;12.858;2024-01-06T11:49:04;2.23;;;2.03;;
1000;SDS011;489;47.806;12.858;2024-01-06T11:51:08;2.10;;;1.90;;
1000;SDS011;489;47.806;12.858;2024-01-06T11:53:10;1.97;;;1.87;;
1000;SDS011;489;47.806;12.858;2024-01-06T11:55:13;2.00;;;1.90;;
1000;SDS011;489;47.806;12.858;2024-01-06T11:57:15;1.93;;;1.70;;
1000;SDS011;489;47.806;12.858;2024-01-06T11:59:17;1.93;;;1.73;;
1000;SDS011;489;47.806;12.858;2024-01-06T12:01:19;4.50;;;3.97;;
1000;SDS011;489;47.806;12.858;2024-01-06T12:03:21;2.37;;;1.93;;
1000;SDS011;489;47.806;12.858;2024-01-06T12:05:24;2.40;;;2.20;;
1000;SDS011;489;47.806;12.858;2024-01-06T12:07:26;3.60;;;2.57;;
1000;SDS011;489;47.806;12.858;2024-01-06T12:09:28;3.77;;;3.40;;
1000;SDS011;489;47.806;12.858;2024-01-06T12:11:32;2.87;;;2.33;;
1000;SDS011;489;47.806;12.858;2024-01-06T12:13:34;1.70;;;1.53;;
1000;SDS011;489;47.806;12.858;2024-01-06T12:15:36;1.33;;;1.23;;
1000;SDS011;489;47.806;12.858;2024-01-06T12:17:41;1.80;;;1.50;;
1000;SDS011;489;47.806;12.858;2024-01-06T12:19:43;1.83;;;1.73;;
1000;SDS011;489;47.806;12.858;2024-01-06T12:21:46;2.33;;;2.13;;
1000;SDS011;489;47.806;12.858;2024-01-06T12:23:48;3.20;;;2.90;;
1000;SDS011;489;47.806;12.858;2024-01-06T12:25:51;5.30;;;4.80;;
1000;SDS011;489;47.806;12.858;2024-01-06T12:27:55;5.30;;;4.80;;
1000;SDS011;489;47.806;12.858;2024-01-06T12:29:57;5.80;;;4.80;;
1000;SDS011;489;47.806;12.858;2024-01-06T12:31:59;5.27;;;4.50;;
1000;SDS011;489;47.806;12.858;2024-01-06T12:34:01;5.87;;;5.27;;
1000;SDS011;489;47.806;12.858;2024-01-06T12:36:05;6.70;;;4.70;;
1000;SDS011;489;47.806;12.858;2024-01-06T12:38:08;5.57;;;5.07;;
1000;SDS011;489;47.806;12.858;2024-01-06T12:40:12;7.73;;;6.07;;
1000;SDS011;489;47.806;12.858;2024-01-06T12:42:15;7.33;;;5.10;;